sensor_id;sensor_type;location;lat;lon;timestamp;P1;P2;P0
73565;PMS5003;61846;52.970;-3.168;2023-07-22T00:00:18;5;1;
73565;PMS5003;61846;52.970;-3.168;2023-07-22T00:02:43;3;1;
73565;PMS5003;61846;52.970;-3.168;2023-07-22T00:05:09;2;2;
73565;PMS5003;61846;52.970;-3.168;2023-07-22T00:07:34;2;2;
73565;PMS5003;61846;52.970;-3.168;2023-07-22T00:09:59;5;2;
73565;PMS5003;61846;52.970;-3.168;2023-07-22T00:12:25;1;1;
73565;PMS5003;61846;52.970;-3.168;2023-07-22T00:14:50;1;1;
73565;PMS5003;61846;52.970;-3.168;2023-07-22T00:17:16;2;2;
73565;PMS5003;61846;52.970;-3.168;2023-07-22T00:19:41;2;1;
73565;PMS5003;61846;52.970;-3.168;2023-07-22T00:22:06;1;1;
73565;PMS5003;61846;52.970;-3.168;2023-07-22T00:24:32;1;1;
73565;PMS5003;61846;52.970;-3.168;2023-07-22T00:26:57;3;3;
73565;PMS5003;61846;52.970;-3.168;2023-07-22T00:29:23;3;2;
73565;PMS5003;61846;52.970;-3.168;2023-07-22T00:31:48;3;3;
73565;PMS5003;61846;52.970;-3.168;2023-07-22T00:34:14;0;0;
73565;PMS5003;61846;52.970;-3.168;2023-07-22T00:36:39;2;2;
73565;PMS5003;61846;52.970;-3.168;2023-07-22T00:39:05;2;2;
73565;PMS5003;61846;52.970;-3.168;2023-07-22T00:41:30;1;1;
73565;PMS5003;61846;52.970;-3.168;2023-07-22T00:43:55;1;1;
73565;PMS5003;61846;52.970;-3.168;2023-07-22T00:46:21;8;3;
73565;PMS5003;61846;52.970;-3.168;2023-07-22T00:48:46;2;1;
73565;PMS5003;61846;52.970;-3.168;2023-07-22T00:51:12;4;4;
73565;PMS5003;61846;52.970;-3.168;2023-07-22T00:53:37;4;3;
73565;PMS5003;61846;52.970;-3.168;2023-07-22T00:56:03;0;0;
73565;PMS5003;61846;52.970;-3.168;2023-07-22T00:58:28;2;1;
73565;PMS5003;61846;52.970;-3.168;2023-07-22T01:00:53;4;3;
73565;PMS5003;61846;52.970;-3.168;2023-07-22T01:03:19;1;1;
73565;PMS5003;61846;52.970;-3.168;2023-07-22T01:05:44;0;0;
73565;PMS5003;61846;52.970;-3.168;2023-07-22T01:08:10;2;1;
73565;PMS5003;61846;52.970;-3.168;2023-07-22T01:10:35;3;2;
73565;PMS5003;61846;52.970;-3.168;2023-07-22T01:13:01;1;1;
73565;PMS5003;61846;52.970;-3.168;2023-07-22T01:15:26;1;1;
73565;PMS5003;61846;52.970;-3.168;2023-07-22T01:17:52;3;2;
73565;PMS5003;61846;52.970;-3.168;2023-07-22T01:20:17;2;2;
73565;PMS5003;61846;52.970;-3.168;2023-07-22T01:25:08;0;0;
73565;PMS5003;61846;52.970;-3.168;2023-07-22T01:27:33;0;0;
73565;PMS5003;61846;52.970;-3.168;2023-07-22T01:29:59;1;1;
73565;PMS5003;61846;52.970;-3.168;2023-07-22T01:32:24;1;1;
73565;PMS5003;61846;52.970;-3.168;2023-07-22T01:34:50;2;0;
73565;PMS5003;61846;52.970;-3.168;2023-07-22T01:37:15;0;0;
73565;PMS5003;61846;52.970;-3.168;2023-07-22T01:39:41;0;0;
73565;PMS5003;61846;52.970;-3.168;2023-07-22T01:42:06;1;1;
73565;PMS5003;61846;52.970;-3.168;2023-07-22T01:44:31;0;0;
73565;PMS5003;61846;52.970;-3.168;2023-07-22T01:46:57;1;1;
73565;PMS5003;61846;52.970;-3.168;2023-07-22T01:49:22;0;0;
73565;PMS5003;61846;52.970;-3.168;2023-07-22T01:51:48;0;0;
73565;PMS5003;61846;52.970;-3.168;2023-07-22T01:54:13;1;1;
73565;PMS5003;61846;52.970;-3.168;2023-07-22T01:56:39;0;0;
73565;PMS5003;61846;52.970;-3.168;2023-07-22T01:59:04;1;1;
73565;PMS5003;61846;52.970;-3.168;2023-07-22T02:01:29;1;1;
73565;PMS5003;61846;52.970;-3.168;2023-07-22T02:03:55;0;0;
73565;PMS5003;61846;52.970;-3.168;2023-07-22T02:06:21;2;2;
73565;PMS5003;61846;52.970;-3.168;2023-07-22T02:08:46;2;2;
73565;PMS5003;61846;52.970;-3.168;2023-07-22T02:11:11;3;2;
73565;PMS5003;61846;52.970;-3.168;2023-07-22T02:13:37;2;2;
73565;PMS5003;61846;52.970;-3.168;2023-07-22T02:16:02;0;0;
73565;PMS5003;61846;52.970;-3.168;2023-07-22T02:18:28;1;1;
73565;PMS5003;61846;52.970;-3.168;2023-07-22T02:20:53;0;0;
73565;PMS5003;61846;52.970;-3.168;2023-07-22T02:23:18;2;2;
73565;PMS5003;61846;52.970;-3.168;2023-07-22T02:25:44;1;1;
73565;PMS5003;61846;52.970;-3.168;2023-07-22T02:28:10;2;2;
73565;PMS5003;61846;52.970;-3.168;2023-07-22T02:30:35;2;2;
73565;PMS5003;61846;52.970;-3.168;2023-07-22T02:33:00;3;3;
73565;PMS5003;61846;52.970;-3.168;2023-07-22T02:35:26;3;3;
73565;PMS5003;61846;52.970;-3.168;2023-07-22T02:37:51;3;3;
73565;PMS5003;61846;52.970;-3.168;2023-07-22T02:40:17;6;6;
73565;PMS5003;61846;52.970;-3.168;2023-07-22T02:42:42;5;5;
73565;PMS5003;61846;52.970;-3.168;2023-07-22T02:45:08;7;5;
73565;PMS5003;61846;52.970;-3.168;2023-07-22T02:47:33;4;4;
73565;PMS5003;61846;52.970;-3.168;2023-07-22T02:49:58;4;4;
73565;PMS5003;61846;52.970;-3.168;2023-07-22T02:52:24;2;2;
73565;PMS5003;61846;52.970;-3.168;2023-07-22T02:57:15;6;6;
73565;PMS5003;61846;52.970;-3.168;2023-07-22T02:59:40;4;4;
73565;PMS5003;61846;52.970;-3.168;2023-07-22T03:02:06;5;5;
73565;PMS5003;61846;52.970;-3.168;2023-07-22T03:04:31;4;4;
73565;PMS5003;61846;52.970;-3.168;2023-07-22T03:06:56;4;4;
73565;PMS5003;61846;52.970;-3.168;2023-07-22T03:09:22;6;5;
73565;PMS5003;61846;52.970;-3.168;2023-07-22T03:11:47;5;5;
73565;PMS5003;61846;52.970;-3.168;2023-07-22T03:14:13;5;4;
73565;PMS5003;61846;52.970;-3.168;2023-07-22T03:16:38;3;3;
73565;PMS5003;61846;52.970;-3.168;2023-07-22T03:19:03;4;4;
73565;PMS5003;61846;52.970;-3.168;2023-07-22T03:21:29;7;5;
73565;PMS5003;61846;52.970;-3.168;2023-07-22T03:23:54;5;4;
73565;PMS5003;61846;52.970;-3.168;2023-07-22T03:26:20;6;5;
73565;PMS5003;61846;52.970;-3.168;2023-07-22T03:28:45;6;6;
73565;PMS5003;61846;52.970;-3.168;2023-07-22T03:31:11;8;6;
73565;PMS5003;61846;52.970;-3.168;2023-07-22T03:33:36;6;6;
73565;PMS5003;61846;52.970;-3.168;2023-07-22T03:36:01;5;4;
73565;PMS5003;61846;52.970;-3.168;2023-07-22T03:38:26;8;8;
73565;PMS5003;61846;52.970;-3.168;2023-07-22T03:40:52;6;6;
73565;PMS5003;61846;52.970;-3.168;2023-07-22T03:43:17;11;9;
73565;PMS5003;61846;52.970;-3.168;2023-07-22T03:45:43;10;8;
73565;PMS5003;61846;52.970;-3.168;2023-07-22T03:48:08;12;5;
73565;PMS5003;61846;52.970;-3.168;2023-07-22T03:50:33;7;6;
73565;PMS5003;61846;52.970;-3.168;2023-07-22T03:52:59;9;7;
73565;PMS5003;61846;52.970;-3.168;2023-07-22T03:55:24;10;8;
73565;PMS5003;61846;52.970;-3.168;2023-07-22T03:57:49;7;6;
73565;PMS5003;61846;52.970;-3.168;2023-07-22T04:00:14;7;7;
73565;PMS5003;61846;52.970;-3.168;2023-07-22T04:02:40;7;7;
73565;PMS5003;61846;52.970;-3.168;2023-07-22T04:05:05;7;5;
73565;PMS5003;61846;52.970;-3.168;2023-07-22T04:07:30;8;8;
73565;PMS5003;61846;52.970;-3.168;2023-07-22T04:09:55;7;7;
73565;PMS5003;61846;52.970;-3.168;2023-07-22T04:12:21;9;8;
73565;PMS5003;61846;52.970;-3.168;2023-07-22T04:14:46;6;6;
73565;PMS5003;61846;52.970;-3.168;2023-07-22T04:17:12;8;7;
73565;PMS5003;61846;52.970;-3.168;2023-07-22T04:19:37;6;6;
73565;PMS5003;61846;52.970;-3.168;2023-07-22T04:22:03;7;6;
73565;PMS5003;61846;52.970;-3.168;2023-07-22T04:24:28;10;9;
73565;PMS5003;61846;52.970;-3.168;2023-07-22T04:26:53;7;7;
73565;PMS5003;61846;52.970;-3.168;2023-07-22T04:29:19;12;10;
73565;PMS5003;61846;52.970;-3.168;2023-07-22T04:31:44;7;7;
73565;PMS5003;61846;52.970;-3.168;2023-07-22T04:34:10;9;6;
73565;PMS5003;61846;52.970;-3.168;2023-07-22T04:36:35;5;5;
73565;PMS5003;61846;52.970;-3.168;2023-07-22T04:39:01;8;6;
73565;PMS5003;61846;52.970;-3.168;2023-07-22T04:41:26;5;5;
73565;PMS5003;61846;52.970;-3.168;2023-07-22T04:43:51;4;4;
73565;PMS5003;61846;52.970;-3.168;2023-07-22T04:46:17;4;3;
73565;PMS5003;61846;52.970;-3.168;2023-07-22T04:48:42;4;4;
73565;PMS5003;61846;52.970;-3.168;2023-07-22T04:51:08;5;4;
73565;PMS5003;61846;52.970;-3.168;2023-07-22T04:53:33;2;2;
73565;PMS5003;61846;52.970;-3.168;2023-07-22T04:55:59;5;5;
73565;PMS5003;61846;52.970;-3.168;2023-07-22T04:58:24;3;2;
73565;PMS5003;61846;52.970;-3.168;2023-07-22T05:00:49;2;2;
73565;PMS5003;61846;52.970;-3.168;2023-07-22T05:03:15;3;3;
73565;PMS5003;61846;52.970;-3.168;2023-07-22T05:05:41;2;2;
73565;PMS5003;61846;52.970;-3.168;2023-07-22T05:08:06;3;3;
73565;PMS5003;61846;52.970;-3.168;2023-07-22T05:10:31;2;2;
73565;PMS5003;61846;52.970;-3.168;2023-07-22T05:12:57;3;2;
73565;PMS5003;61846;52.970;-3.168;2023-07-22T05:15:22;2;2;
73565;PMS5003;61846;52.970;-3.168;2023-07-22T05:17:48;5;4;
73565;PMS5003;61846;52.970;-3.168;2023-07-22T05:20:13;3;3;
73565;PMS5003;61846;52.970;-3.168;2023-07-22T05:22:39;2;2;
73565;PMS5003;61846;52.970;-3.168;2023-07-22T05:25:05;3;3;
73565;PMS5003;61846;52.970;-3.168;2023-07-22T05:27:29;8;2;
73565;PMS5003;61846;52.970;-3.168;2023-07-22T05:29:55;2;2;
73565;PMS5003;61846;52.970;-3.168;2023-07-22T05:32:20;3;1;
73565;PMS5003;61846;52.970;-3.168;2023-07-22T05:34:45;3;2;
73565;PMS5003;61846;52.970;-3.168;2023-07-22T05:37:11;3;2;
73565;PMS5003;61846;52.970;-3.168;2023-07-22T05:39:36;4;4;
73565;PMS5003;61846;52.970;-3.168;2023-07-22T05:42:02;1;1;
73565;PMS5003;61846;52.970;-3.168;2023-07-22T05:44:27;1;1;
73565;PMS5003;61846;52.970;-3.168;2023-07-22T05:46:53;0;0;
73565;PMS5003;61846;52.970;-3.168;2023-07-22T05:49:18;1;1;
73565;PMS5003;61846;52.970;-3.168;2023-07-22T05:51:43;0;0;
73565;PMS5003;61846;52.970;-3.168;2023-07-22T05:54:09;0;0;
73565;PMS5003;61846;52.970;-3.168;2023-07-22T05:56:34;0;0;
73565;PMS5003;61846;52.970;-3.168;2023-07-22T05:59:00;0;0;
73565;PMS5003;61846;52.970;-3.168;2023-07-22T06:01:25;0;0;
73565;PMS5003;61846;52.970;-3.168;2023-07-22T06:03:51;2;2;
73565;PMS5003;61846;52.970;-3.168;2023-07-22T06:06:16;2;2;
73565;PMS5003;61846;52.970;-3.168;2023-07-22T06:08:42;1;1;
73565;PMS5003;61846;52.970;-3.168;2023-07-22T06:11:07;1;1;
73565;PMS5003;61846;52.970;-3.168;2023-07-22T06:13:32;0;0;
73565;PMS5003;61846;52.970;-3.168;2023-07-22T06:15:58;1;1;
73565;PMS5003;61846;52.970;-3.168;2023-07-22T06:18:23;2;2;
73565;PMS5003;61846;52.970;-3.168;2023-07-22T06:20:49;2;1;
73565;PMS5003;61846;52.970;-3.168;2023-07-22T06:23:14;1;1;
73565;PMS5003;61846;52.970;-3.168;2023-07-22T06:25:40;0;0;
73565;PMS5003;61846;52.970;-3.168;2023-07-22T06:28:06;0;0;
73565;PMS5003;61846;52.970;-3.168;2023-07-22T06:30:30;1;1;
73565;PMS5003;61846;52.970;-3.168;2023-07-22T06:32:56;0;0;
73565;PMS5003;61846;52.970;-3.168;2023-07-22T06:35:21;1;1;
73565;PMS5003;61846;52.970;-3.168;2023-07-22T06:37:47;0;0;
73565;PMS5003;61846;52.970;-3.168;2023-07-22T06:40:12;1;1;
73565;PMS5003;61846;52.970;-3.168;2023-07-22T06:42:37;1;1;
73565;PMS5003;61846;52.970;-3.168;2023-07-22T06:45:04;0;0;
73565;PMS5003;61846;52.970;-3.168;2023-07-22T06:47:28;1;1;
73565;PMS5003;61846;52.970;-3.168;2023-07-22T06:49:54;0;0;
73565;PMS5003;61846;52.970;-3.168;2023-07-22T06:52:19;0;0;
73565;PMS5003;61846;52.970;-3.168;2023-07-22T06:54:45;1;1;
73565;PMS5003;61846;52.970;-3.168;2023-07-22T06:57:10;0;0;
73565;PMS5003;61846;52.970;-3.168;2023-07-22T06:59:35;0;0;
73565;PMS5003;61846;52.970;-3.168;2023-07-22T07:02:01;1;1;
73565;PMS5003;61846;52.970;-3.168;2023-07-22T07:04:26;0;0;
73565;PMS5003;61846;52.970;-3.168;2023-07-22T07:06:52;0;0;
73565;PMS5003;61846;52.970;-3.168;2023-07-22T07:09:17;0;0;
73565;PMS5003;61846;52.970;-3.168;2023-07-22T07:11:42;0;0;
73565;PMS5003;61846;52.970;-3.168;2023-07-22T07:14:08;0;0;
73565;PMS5003;61846;52.970;-3.168;2023-07-22T07:16:33;1;1;
73565;PMS5003;61846;52.970;-3.168;2023-07-22T07:18:59;1;1;
73565;PMS5003;61846;52.970;-3.168;2023-07-22T07:21:24;0;0;
73565;PMS5003;61846;52.970;-3.168;2023-07-22T07:23:50;2;2;
73565;PMS5003;61846;52.970;-3.168;2023-07-22T07:26:15;1;1;
73565;PMS5003;61846;52.970;-3.168;2023-07-22T07:28:41;0;0;
73565;PMS5003;61846;52.970;-3.168;2023-07-22T07:31:06;0;0;
73565;PMS5003;61846;52.970;-3.168;2023-07-22T07:33:32;0;0;
73565;PMS5003;61846;52.970;-3.168;2023-07-22T07:35:57;0;0;
73565;PMS5003;61846;52.970;-3.168;2023-07-22T07:38:22;1;1;
73565;PMS5003;61846;52.970;-3.168;2023-07-22T07:40:51;2;0;
73565;PMS5003;61846;52.970;-3.168;2023-07-22T07:43:13;1;1;
73565;PMS5003;61846;52.970;-3.168;2023-07-22T07:45:38;1;1;
73565;PMS5003;61846;52.970;-3.168;2023-07-22T07:48:04;0;0;
73565;PMS5003;61846;52.970;-3.168;2023-07-22T07:50:29;0;0;
73565;PMS5003;61846;52.970;-3.168;2023-07-22T07:52:55;1;1;
73565;PMS5003;61846;52.970;-3.168;2023-07-22T07:55:20;1;1;
73565;PMS5003;61846;52.970;-3.168;2023-07-22T07:57:46;0;0;
73565;PMS5003;61846;52.970;-3.168;2023-07-22T08:00:11;0;0;
73565;PMS5003;61846;52.970;-3.168;2023-07-22T08:02:36;0;0;
73565;PMS5003;61846;52.970;-3.168;2023-07-22T08:05:02;0;0;
73565;PMS5003;61846;52.970;-3.168;2023-07-22T08:07:27;0;0;
73565;PMS5003;61846;52.970;-3.168;2023-07-22T08:09:53;0;0;
73565;PMS5003;61846;52.970;-3.168;2023-07-22T08:12:18;0;0;
73565;PMS5003;61846;52.970;-3.168;2023-07-22T08:14:43;1;1;
73565;PMS5003;61846;52.970;-3.168;2023-07-22T08:17:09;0;0;
73565;PMS5003;61846;52.970;-3.168;2023-07-22T08:19:34;0;0;
73565;PMS5003;61846;52.970;-3.168;2023-07-22T08:22:00;1;0;
73565;PMS5003;61846;52.970;-3.168;2023-07-22T08:24:25;0;0;
73565;PMS5003;61846;52.970;-3.168;2023-07-22T08:26:50;0;0;
73565;PMS5003;61846;52.970;-3.168;2023-07-22T08:29:16;0;0;
73565;PMS5003;61846;52.970;-3.168;2023-07-22T08:31:42;0;0;
73565;PMS5003;61846;52.970;-3.168;2023-07-22T08:34:07;1;1;
73565;PMS5003;61846;52.970;-3.168;2023-07-22T08:36:32;0;0;
73565;PMS5003;61846;52.970;-3.168;2023-07-22T08:38:57;3;3;
73565;PMS5003;61846;52.970;-3.168;2023-07-22T08:41:22;0;0;
73565;PMS5003;61846;52.970;-3.168;2023-07-22T08:43:48;0;0;
73565;PMS5003;61846;52.970;-3.168;2023-07-22T08:46:13;0;0;
73565;PMS5003;61846;52.970;-3.168;2023-07-22T08:48:39;0;0;
73565;PMS5003;61846;52.970;-3.168;2023-07-22T08:51:06;0;0;
73565;PMS5003;61846;52.970;-3.168;2023-07-22T08:53:30;0;0;
73565;PMS5003;61846;52.970;-3.168;2023-07-22T08:55:55;1;0;
73565;PMS5003;61846;52.970;-3.168;2023-07-22T08:58:20;0;0;
73565;PMS5003;61846;52.970;-3.168;2023-07-22T09:00:46;0;0;
73565;PMS5003;61846;52.970;-3.168;2023-07-22T09:03:11;0;0;
73565;PMS5003;61846;52.970;-3.168;2023-07-22T09:05:37;0;0;
73565;PMS5003;61846;52.970;-3.168;2023-07-22T09:08:02;0;0;
73565;PMS5003;61846;52.970;-3.168;2023-07-22T09:10:27;0;0;
73565;PMS5003;61846;52.970;-3.168;2023-07-22T09:12:53;0;0;
73565;PMS5003;61846;52.970;-3.168;2023-07-22T09:15:18;0;0;
73565;PMS5003;61846;52.970;-3.168;2023-07-22T09:17:44;0;0;
73565;PMS5003;61846;52.970;-3.168;2023-07-22T09:20:09;0;0;
73565;PMS5003;61846;52.970;-3.168;2023-07-22T09:22:34;0;0;
73565;PMS5003;61846;52.970;-3.168;2023-07-22T09:29:50;0;0;
73565;PMS5003;61846;52.970;-3.168;2023-07-22T09:32:16;0;0;
73565;PMS5003;61846;52.970;-3.168;2023-07-22T09:37:07;0;0;
73565;PMS5003;61846;52.970;-3.168;2023-07-22T09:39:32;0;0;
73565;PMS5003;61846;52.970;-3.168;2023-07-22T09:41:58;0;0;
73565;PMS5003;61846;52.970;-3.168;2023-07-22T09:44:23;0;0;
73565;PMS5003;61846;52.970;-3.168;2023-07-22T09:46:48;0;0;
73565;PMS5003;61846;52.970;-3.168;2023-07-22T09:49:15;0;0;
73565;PMS5003;61846;52.970;-3.168;2023-07-22T09:51:40;0;0;
73565;PMS5003;61846;52.970;-3.168;2023-07-22T09:54:05;0;0;
73565;PMS5003;61846;52.970;-3.168;2023-07-22T09:56:30;0;0;
73565;PMS5003;61846;52.970;-3.168;2023-07-22T09:58:56;0;0;
73565;PMS5003;61846;52.970;-3.168;2023-07-22T10:01:23;0;0;
73565;PMS5003;61846;52.970;-3.168;2023-07-22T10:03:46;0;0;
73565;PMS5003;61846;52.970;-3.168;2023-07-22T10:06:12;0;0;
73565;PMS5003;61846;52.970;-3.168;2023-07-22T10:08:37;0;0;
73565;PMS5003;61846;52.970;-3.168;2023-07-22T10:11:03;1;1;
73565;PMS5003;61846;52.970;-3.168;2023-07-22T10:13:28;0;0;
73565;PMS5003;61846;52.970;-3.168;2023-07-22T10:15:53;0;0;
73565;PMS5003;61846;52.970;-3.168;2023-07-22T10:18:19;0;0;
73565;PMS5003;61846;52.970;-3.168;2023-07-22T10:20:44;0;0;
73565;PMS5003;61846;52.970;-3.168;2023-07-22T10:23:09;0;0;
73565;PMS5003;61846;52.970;-3.168;2023-07-22T10:25:35;0;0;
73565;PMS5003;61846;52.970;-3.168;2023-07-22T10:28:00;0;0;
73565;PMS5003;61846;52.970;-3.168;2023-07-22T10:30:26;0;0;
73565;PMS5003;61846;52.970;-3.168;2023-07-22T10:32:52;0;0;
73565;PMS5003;61846;52.970;-3.168;2023-07-22T10:35:17;0;0;
73565;PMS5003;61846;52.970;-3.168;2023-07-22T10:37:43;0;0;
73565;PMS5003;61846;52.970;-3.168;2023-07-22T10:42:33;0;0;
73565;PMS5003;61846;52.970;-3.168;2023-07-22T10:44:59;0;0;
73565;PMS5003;61846;52.970;-3.168;2023-07-22T10:47:31;0;0;
73565;PMS5003;61846;52.970;-3.168;2023-07-22T10:49:49;0;0;
73565;PMS5003;61846;52.970;-3.168;2023-07-22T10:52:14;0;0;
73565;PMS5003;61846;52.970;-3.168;2023-07-22T10:54:40;0;0;
73565;PMS5003;61846;52.970;-3.168;2023-07-22T10:59:32;0;0;
73565;PMS5003;61846;52.970;-3.168;2023-07-22T11:01:56;0;0;
73565;PMS5003;61846;52.970;-3.168;2023-07-22T11:04:22;0;0;
73565;PMS5003;61846;52.970;-3.168;2023-07-22T11:06:52;0;0;
73565;PMS5003;61846;52.970;-3.168;2023-07-22T11:11:37;0;0;
73565;PMS5003;61846;52.970;-3.168;2023-07-22T11:16:28;0;0;
73565;PMS5003;61846;52.970;-3.168;2023-07-22T11:18:53;0;0;
73565;PMS5003;61846;52.970;-3.168;2023-07-22T11:21:18;0;0;
73565;PMS5003;61846;52.970;-3.168;2023-07-22T11:23:44;0;0;
73565;PMS5003;61846;52.970;-3.168;2023-07-22T11:26:09;0;0;
73565;PMS5003;61846;52.970;-3.168;2023-07-22T11:28:35;0;0;
73565;PMS5003;61846;52.970;-3.168;2023-07-22T11:31:00;0;0;
73565;PMS5003;61846;52.970;-3.168;2023-07-22T11:33:25;0;0;
73565;PMS5003;61846;52.970;-3.168;2023-07-22T11:35:51;6;0;
73565;PMS5003;61846;52.970;-3.168;2023-07-22T11:38:16;0;0;
73565;PMS5003;61846;52.970;-3.168;2023-07-22T11:40:42;0;0;
73565;PMS5003;61846;52.970;-3.168;2023-07-22T11:43:07;0;0;
73565;PMS5003;61846;52.970;-3.168;2023-07-22T11:45:32;0;0;
73565;PMS5003;61846;52.970;-3.168;2023-07-22T11:47:58;0;0;
73565;PMS5003;61846;52.970;-3.168;2023-07-22T11:52:49;0;0;
73565;PMS5003;61846;52.970;-3.168;2023-07-22T11:55:14;0;0;
73565;PMS5003;61846;52.970;-3.168;2023-07-22T11:57:39;0;0;
73565;PMS5003;61846;52.970;-3.168;2023-07-22T12:00:07;14;11;
73565;PMS5003;61846;52.970;-3.168;2023-07-22T12:02:29;1;1;
73565;PMS5003;61846;52.970;-3.168;2023-07-22T12:04:56;0;0;
73565;PMS5003;61846;52.970;-3.168;2023-07-22T12:07:22;1;1;
73565;PMS5003;61846;52.970;-3.168;2023-07-22T12:09:47;0;0;
73565;PMS5003;61846;52.970;-3.168;2023-07-22T12:12:11;0;0;
73565;PMS5003;61846;52.970;-3.168;2023-07-22T12:14:36;0;0;
73565;PMS5003;61846;52.970;-3.168;2023-07-22T12:17:02;0;0;
73565;PMS5003;61846;52.970;-3.168;2023-07-22T12:19:27;0;0;
73565;PMS5003;61846;52.970;-3.168;2023-07-22T12:21:52;0;0;
73565;PMS5003;61846;52.970;-3.168;2023-07-22T12:24:18;0;0;
73565;PMS5003;61846;52.970;-3.168;2023-07-22T12:26:43;0;0;
73565;PMS5003;61846;52.970;-3.168;2023-07-22T12:29:08;0;0;
73565;PMS5003;61846;52.970;-3.168;2023-07-22T12:31:34;0;0;
73565;PMS5003;61846;52.970;-3.168;2023-07-22T12:33:59;0;0;
73565;PMS5003;61846;52.970;-3.168;2023-07-22T12:36:24;0;0;
73565;PMS5003;61846;52.970;-3.168;2023-07-22T12:38:50;0;0;
73565;PMS5003;61846;52.970;-3.168;2023-07-22T12:41:15;0;0;
73565;PMS5003;61846;52.970;-3.168;2023-07-22T12:43:40;0;0;
73565;PMS5003;61846;52.970;-3.168;2023-07-22T12:46:06;0;0;
73565;PMS5003;61846;52.970;-3.168;2023-07-22T12:48:31;0;0;
73565;PMS5003;61846;52.970;-3.168;2023-07-22T12:50:56;0;0;
73565;PMS5003;61846;52.970;-3.168;2023-07-22T12:53:22;10;9;
73565;PMS5003;61846;52.970;-3.168;2023-07-22T12:55:47;0;0;
73565;PMS5003;61846;52.970;-3.168;2023-07-22T12:58:13;1;1;
73565;PMS5003;61846;52.970;-3.168;2023-07-22T13:00:38;0;0;
73565;PMS5003;61846;52.970;-3.168;2023-07-22T13:03:03;0;0;
73565;PMS5003;61846;52.970;-3.168;2023-07-22T13:05:28;0;0;
73565;PMS5003;61846;52.970;-3.168;2023-07-22T13:07:54;0;0;
73565;PMS5003;61846;52.970;-3.168;2023-07-22T13:10:19;0;0;
73565;PMS5003;61846;52.970;-3.168;2023-07-22T13:12:44;0;0;
73565;PMS5003;61846;52.970;-3.168;2023-07-22T13:15:10;0;0;
73565;PMS5003;61846;52.970;-3.168;2023-07-22T13:17:35;0;0;
73565;PMS5003;61846;52.970;-3.168;2023-07-22T13:20:00;0;0;
73565;PMS5003;61846;52.970;-3.168;2023-07-22T13:22:26;0;0;
73565;PMS5003;61846;52.970;-3.168;2023-07-22T13:24:51;0;0;
73565;PMS5003;61846;52.970;-3.168;2023-07-22T13:27:16;0;0;
73565;PMS5003;61846;52.970;-3.168;2023-07-22T13:29:42;0;0;
73565;PMS5003;61846;52.970;-3.168;2023-07-22T13:32:07;0;0;
73565;PMS5003;61846;52.970;-3.168;2023-07-22T13:34:32;0;0;
73565;PMS5003;61846;52.970;-3.168;2023-07-22T13:36:58;0;0;
73565;PMS5003;61846;52.970;-3.168;2023-07-22T13:39:23;0;0;
73565;PMS5003;61846;52.970;-3.168;2023-07-22T13:41:48;1;1;
73565;PMS5003;61846;52.970;-3.168;2023-07-22T13:44:14;0;0;
73565;PMS5003;61846;52.970;-3.168;2023-07-22T13:46:39;1;1;
73565;PMS5003;61846;52.970;-3.168;2023-07-22T13:49:04;1;1;
73565;PMS5003;61846;52.970;-3.168;2023-07-22T13:51:30;0;0;
73565;PMS5003;61846;52.970;-3.168;2023-07-22T13:53:55;0;0;
73565;PMS5003;61846;52.970;-3.168;2023-07-22T13:56:20;0;0;
73565;PMS5003;61846;52.970;-3.168;2023-07-22T13:58:46;0;0;
73565;PMS5003;61846;52.970;-3.168;2023-07-22T14:01:11;0;0;
73565;PMS5003;61846;52.970;-3.168;2023-07-22T14:03:36;0;0;
73565;PMS5003;61846;52.970;-3.168;2023-07-22T14:06:02;0;0;
73565;PMS5003;61846;52.970;-3.168;2023-07-22T14:08:27;1;0;
73565;PMS5003;61846;52.970;-3.168;2023-07-22T14:10:52;0;0;
73565;PMS5003;61846;52.970;-3.168;2023-07-22T14:13:17;0;0;
73565;PMS5003;61846;52.970;-3.168;2023-07-22T14:15:43;0;0;
73565;PMS5003;61846;52.970;-3.168;2023-07-22T14:18:08;1;0;
73565;PMS5003;61846;52.970;-3.168;2023-07-22T14:20:34;0;0;
73565;PMS5003;61846;52.970;-3.168;2023-07-22T14:22:59;0;0;
73565;PMS5003;61846;52.970;-3.168;2023-07-22T14:25:24;0;0;
73565;PMS5003;61846;52.970;-3.168;2023-07-22T14:27:50;0;0;
73565;PMS5003;61846;52.970;-3.168;2023-07-22T14:30:15;0;0;
73565;PMS5003;61846;52.970;-3.168;2023-07-22T14:32:40;0;0;
73565;PMS5003;61846;52.970;-3.168;2023-07-22T14:35:06;0;0;
73565;PMS5003;61846;52.970;-3.168;2023-07-22T14:37:31;1;1;
73565;PMS5003;61846;52.970;-3.168;2023-07-22T14:39:56;0;0;
73565;PMS5003;61846;52.970;-3.168;2023-07-22T14:42:21;3;3;
73565;PMS5003;61846;52.970;-3.168;2023-07-22T14:44:47;2;2;
73565;PMS5003;61846;52.970;-3.168;2023-07-22T14:47:12;2;2;
73565;PMS5003;61846;52.970;-3.168;2023-07-22T14:49:37;6;4;
73565;PMS5003;61846;52.970;-3.168;2023-07-22T14:52:03;1;1;
73565;PMS5003;61846;52.970;-3.168;2023-07-22T14:54:28;0;0;
73565;PMS5003;61846;52.970;-3.168;2023-07-22T14:56:53;1;1;
73565;PMS5003;61846;52.970;-3.168;2023-07-22T14:59:19;1;1;
73565;PMS5003;61846;52.970;-3.168;2023-07-22T15:01:49;0;0;
73565;PMS5003;61846;52.970;-3.168;2023-07-22T15:04:09;0;0;
73565;PMS5003;61846;52.970;-3.168;2023-07-22T15:06:35;1;1;
73565;PMS5003;61846;52.970;-3.168;2023-07-22T15:09:00;0;0;
73565;PMS5003;61846;52.970;-3.168;2023-07-22T15:11:25;0;0;
73565;PMS5003;61846;52.970;-3.168;2023-07-22T15:13:50;0;0;
73565;PMS5003;61846;52.970;-3.168;2023-07-22T15:16:16;1;1;
73565;PMS5003;61846;52.970;-3.168;2023-07-22T15:18:41;3;0;
73565;PMS5003;61846;52.970;-3.168;2023-07-22T15:21:06;1;1;
73565;PMS5003;61846;52.970;-3.168;2023-07-22T15:23:32;0;0;
73565;PMS5003;61846;52.970;-3.168;2023-07-22T15:25:57;0;0;
73565;PMS5003;61846;52.970;-3.168;2023-07-22T15:28:22;1;1;
73565;PMS5003;61846;52.970;-3.168;2023-07-22T15:30:48;1;1;
73565;PMS5003;61846;52.970;-3.168;2023-07-22T15:33:13;0;0;
73565;PMS5003;61846;52.970;-3.168;2023-07-22T15:35:38;0;0;
73565;PMS5003;61846;52.970;-3.168;2023-07-22T15:38:03;0;0;
73565;PMS5003;61846;52.970;-3.168;2023-07-22T15:40:29;1;1;
73565;PMS5003;61846;52.970;-3.168;2023-07-22T15:42:54;0;0;
73565;PMS5003;61846;52.970;-3.168;2023-07-22T15:45:19;0;0;
73565;PMS5003;61846;52.970;-3.168;2023-07-22T15:47:45;0;0;
73565;PMS5003;61846;52.970;-3.168;2023-07-22T15:50:10;0;0;
73565;PMS5003;61846;52.970;-3.168;2023-07-22T15:52:35;0;0;
73565;PMS5003;61846;52.970;-3.168;2023-07-22T15:55:00;0;0;
73565;PMS5003;61846;52.970;-3.168;2023-07-22T15:57:26;0;0;
73565;PMS5003;61846;52.970;-3.168;2023-07-22T15:59:51;0;0;
73565;PMS5003;61846;52.970;-3.168;2023-07-22T16:02:16;0;0;
73565;PMS5003;61846;52.970;-3.168;2023-07-22T16:04:42;0;0;
73565;PMS5003;61846;52.970;-3.168;2023-07-22T16:07:07;0;0;
73565;PMS5003;61846;52.970;-3.168;2023-07-22T16:09:32;0;0;
73565;PMS5003;61846;52.970;-3.168;2023-07-22T16:11:57;0;0;
73565;PMS5003;61846;52.970;-3.168;2023-07-22T16:14:23;0;0;
73565;PMS5003;61846;52.970;-3.168;2023-07-22T16:16:48;0;0;
73565;PMS5003;61846;52.970;-3.168;2023-07-22T16:19:13;0;0;
73565;PMS5003;61846;52.970;-3.168;2023-07-22T16:21:39;3;3;
73565;PMS5003;61846;52.970;-3.168;2023-07-22T16:24:04;1;0;
73565;PMS5003;61846;52.970;-3.168;2023-07-22T16:26:29;1;1;
73565;PMS5003;61846;52.970;-3.168;2023-07-22T16:28:55;1;0;
73565;PMS5003;61846;52.970;-3.168;2023-07-22T16:31:20;0;0;
73565;PMS5003;61846;52.970;-3.168;2023-07-22T16:33:45;0;0;
73565;PMS5003;61846;52.970;-3.168;2023-07-22T16:36:10;0;0;
73565;PMS5003;61846;52.970;-3.168;2023-07-22T16:38:36;0;0;
73565;PMS5003;61846;52.970;-3.168;2023-07-22T16:41:01;1;1;
73565;PMS5003;61846;52.970;-3.168;2023-07-22T16:43:26;0;0;